Time;durP1;ratioP1;P1;durP2;ratioP2;P2;SDS_P1;SDS_P2;PMS_P1;PMS_P2;Temp;Humidity;BMP_temperature;BMP_pressure;BME280_temperature;BME280_humidity;BME280_pressure;Samples;Min_cycle;Max_cycle;Signal;HPM_P1;HPM_P2
2022/12/19 00:02:06;;;;;;;16.73;7.00;;;4.70;99.90;;;;;;4963098;28;20090;-79
2022/12/19 00:04:33;;;;;;;15.32;7.00;;;4.80;99.90;;;;;;4986741;28;20095;-79
2022/12/19 00:06:59;;;;;;;16.53;7.17;;;4.80;99.90;;;;;;4978667;28;20054;-79
2022/12/19 00:09:25;;;;;;;13.60;5.30;;;4.90;99.90;;;;;;4961947;28;20056;-79
2022/12/19 00:11:51;;;;;;;15.98;6.55;;;4.90;99.90;;;;;;4983348;28;20060;-79
2022/12/19 00:14:17;;;;;;;15.43;6.17;;;5.00;99.90;;;;;;5004309;28;20318;-79
2022/12/19 00:16:43;;;;;;;11.73;5.07;;;5.00;99.90;;;;;;4985153;28;20018;-79
2022/12/19 00:19:10;;;;;;;15.45;6.82;;;5.00;99.90;;;;;;4975258;28;20064;-79
2022/12/19 00:21:36;;;;;;;13.88;6.13;;;5.00;99.90;;;;;;4995469;28;20148;-78
2022/12/19 00:24:07;;;;;;;11.87;5.37;;;5.10;99.90;;;;;;4986045;28;20037;-79
2022/12/19 00:26:35;;;;;;;15.18;6.22;;;5.10;99.90;;;;;;4983415;28;20039;-79
2022/12/19 00:29:04;;;;;;;15.40;6.03;;;5.10;99.90;;;;;;4984639;28;20018;-78
2022/12/19 00:31:32;;;;;;;14.43;5.80;;;5.20;99.90;;;;;;4973369;28;20018;-78
2022/12/19 00:33:59;;;;;;;13.75;5.40;;;5.20;99.90;;;;;;4971509;28;20527;-79
2022/12/19 00:36:30;;;;;;;14.93;6.20;;;5.30;99.90;;;;;;4969691;28;20691;-78
2022/12/19 00:38:58;;;;;;;11.70;4.72;;;5.30;99.90;;;;;;4981453;28;20404;-78
2022/12/19 00:41:26;;;;;;;12.13;4.68;;;5.40;99.90;;;;;;4992607;28;20640;-78
2022/12/19 00:43:57;;;;;;;14.98;6.15;;;5.40;99.90;;;;;;5006144;28;20465;-78
2022/12/19 00:46:24;;;;;;;13.00;5.88;;;5.40;99.90;;;;;;4998794;28;20711;-78
2022/12/19 00:48:50;;;;;;;12.97;5.90;;;5.40;99.90;;;;;;4987664;28;20053;-78
2022/12/19 00:51:18;;;;;;;11.90;5.15;;;5.50;99.90;;;;;;4959510;28;20540;-79
2022/12/19 00:53:45;;;;;;;11.95;5.45;;;5.60;99.90;;;;;;4996344;28;20006;-78
2022/12/19 00:56:14;;;;;;;10.73;4.60;;;5.60;99.90;;;;;;4974293;28;20140;-78
2022/12/19 00:58:40;;;;;;;9.82;4.15;;;5.60;99.90;;;;;;4979181;28;20030;-78
2022/12/19 01:01:07;;;;;;;11.87;4.30;;;5.70;99.90;;;;;;4998986;28;20060;-79
2022/12/19 01:03:33;;;;;;;9.57;4.05;;;5.70;99.90;;;;;;5003164;28;20067;-78
2022/12/19 01:05:59;;;;;;;10.52;4.25;;;5.70;99.90;;;;;;4954930;28;20128;-78
2022/12/19 01:08:25;;;;;;;10.50;4.57;;;5.70;99.90;;;;;;4974989;28;20254;-79
2022/12/19 01:10:51;;;;;;;10.50;4.80;;;5.80;99.90;;;;;;4978317;28;20124;-79
2022/12/19 01:13:19;;;;;;;8.75;4.20;;;5.80;99.90;;;;;;4990019;28;20519;-79
2022/12/19 01:15:45;;;;;;;10.45;4.78;;;5.80;99.90;;;;;;5005977;28;20132;-79
2022/12/19 01:18:11;;;;;;;11.93;4.97;;;5.80;99.90;;;;;;4990095;28;20306;-79
2022/12/19 01:20:39;;;;;;;10.33;4.37;;;5.80;99.90;;;;;;4958534;28;20514;-79
2022/12/19 01:23:06;;;;;;;10.88;4.90;;;5.90;99.90;;;;;;4991691;28;20025;-79
2022/12/19 01:25:34;;;;;;;10.35;4.47;;;5.90;99.90;;;;;;4976528;28;20362;-79
2022/12/19 01:28:00;;;;;;;9.48;3.83;;;5.90;99.90;;;;;;4988108;28;20022;-79
2022/12/19 01:30:27;;;;;;;8.80;4.10;;;6.00;99.90;;;;;;4988482;28;20285;-79
2022/12/19 01:32:53;;;;;;;11.43;4.97;;;6.00;99.90;;;;;;4974345;28;20145;-80
2022/12/19 01:35:19;;;;;;;7.53;3.63;;;6.00;99.90;;;;;;4968659;28;20055;-80
2022/12/19 01:37:44;;;;;;;9.25;3.97;;;6.00;99.90;;;;;;4988340;28;20024;-81
2022/12/19 01:40:11;;;;;;;9.83;4.60;;;6.10;99.90;;;;;;4974687;28;20029;-81
2022/12/19 01:42:37;;;;;;;11.65;4.82;;;6.10;99.90;;;;;;4973358;28;20061;-81
2022/12/19 01:45:09;;;;;;;8.00;3.80;;;6.10;99.90;;;;;;4990956;28;20156;-82
2022/12/19 01:47:39;;;;;;;8.60;3.37;;;6.10;99.90;;;;;;4999519;28;20382;-81
2022/12/19 01:50:07;;;;;;;8.95;3.70;;;6.20;99.90;;;;;;4967193;28;20464;-80
2022/12/19 01:52:33;;;;;;;8.20;3.75;;;6.20;99.90;;;;;;5004311;28;20038;-80
2022/12/19 01:55:00;;;;;;;7.40;3.30;;;6.20;99.90;;;;;;4992450;28;20017;-82
2022/12/19 01:57:25;;;;;;;8.70;4.38;;;6.20;99.90;;;;;;4993820;28;20022;-80
2022/12/19 01:59:55;;;;;;;7.38;3.70;;;6.20;99.90;;;;;;5007577;28;20038;-80
2022/12/19 02:02:36;;;;;;;7.53;3.40;;;6.30;99.90;;;;;;4966981;28;20242;-80
2022/12/19 02:05:04;;;;;;;8.48;3.60;;;6.30;99.90;;;;;;4999607;28;20040;-80
2022/12/19 02:07:31;;;;;;;7.25;3.58;;;6.30;99.90;;;;;;4968883;28;20164;-79
2022/12/19 02:09:57;;;;;;;5.60;2.80;;;6.30;99.90;;;;;;4960457;28;20037;-80
2022/12/19 02:12:24;;;;;;;5.75;2.67;;;6.40;99.90;;;;;;5008756;28;20087;-80
2022/12/19 02:14:51;;;;;;;7.80;3.23;;;6.40;99.90;;;;;;5005922;28;20481;-80
2022/12/19 02:17:52;;;;;;;6.40;2.90;;;6.50;99.90;;;;;;4973436;28;20025;-80
2022/12/19 02:20:30;;;;;;;7.80;3.75;;;6.40;99.90;;;;;;4971093;28;20254;-79
2022/12/19 02:23:11;;;;;;;6.00;2.75;;;6.50;99.90;;;;;;4941011;28;20037;-80
2022/12/19 02:26:14;;;;;;;6.68;3.33;;;6.60;99.90;;;;;;5000164;28;20033;-80
2022/12/19 02:29:10;;;;;;;5.63;2.73;;;6.60;99.90;;;;;;4989884;28;20030;-80
2022/12/19 02:31:46;;;;;;;6.45;2.95;;;6.70;99.90;;;;;;4992209;28;20092;-80
2022/12/19 02:34:29;;;;;;;7.75;3.03;;;6.70;99.90;;;;;;4972185;28;20285;-80
2022/12/19 02:37:17;;;;;;;6.03;3.05;;;6.80;99.90;;;;;;5003085;28;20026;-80
2022/12/19 02:40:06;;;;;;;5.70;3.10;;;6.80;99.90;;;;;;4963790;28;20382;-80
2022/12/19 02:42:37;;;;;;;7.03;3.30;;;6.90;99.90;;;;;;4982223;28;20250;-80
2022/12/19 02:45:05;;;;;;;5.20;2.95;;;7.00;99.90;;;;;;4990283;28;20115;-79
2022/12/19 02:47:32;;;;;;;6.72;3.20;;;7.00;99.90;;;;;;4992180;28;20216;-80
2022/12/19 02:49:59;;;;;;;5.20;2.92;;;7.10;99.90;;;;;;5008198;28;20037;-81
2022/12/19 02:52:24;;;;;;;6.22;3.25;;;7.20;99.90;;;;;;4972026;28;20026;-80
2022/12/19 02:54:56;;;;;;;5.10;2.63;;;7.20;99.90;;;;;;4959245;28;20378;-80
2022/12/19 02:57:37;;;;;;;6.45;3.63;;;7.20;99.90;;;;;;4977195;28;20026;-80
2022/12/19 03:00:07;;;;;;;7.70;3.78;;;7.40;99.90;;;;;;4993645;28;20033;-80
2022/12/19 03:02:50;;;;;;;5.13;3.17;;;7.40;99.90;;;;;;4978675;28;20072;-80
2022/12/19 03:05:43;;;;;;;5.80;3.08;;;7.50;99.90;;;;;;4990422;28;20128;-80
2022/12/19 03:08:15;;;;;;;5.75;2.88;;;7.50;99.90;;;;;;5006138;28;20033;-81
2022/12/19 03:10:47;;;;;;;6.05;3.40;;;7.50;99.90;;;;;;4975307;28;20048;-81
2022/12/19 03:13:23;;;;;;;6.50;3.30;;;7.60;99.90;;;;;;4994403;28;20089;-80
2022/12/19 03:15:50;;;;;;;5.87;3.20;;;7.60;99.90;;;;;;5001016;28;20021;-81
2022/12/19 03:18:17;;;;;;;5.70;3.10;;;7.60;99.90;;;;;;4988943;28;20080;-79
2022/12/19 03:21:07;;;;;;;8.38;4.03;;;7.70;99.90;;;;;;5008446;28;20113;-80
2022/12/19 03:23:33;;;;;;;10.32;4.30;;;7.70;99.90;;;;;;4992928;28;20040;-80
2022/12/19 03:26:05;;;;;;;8.17;4.00;;;7.70;99.90;;;;;;4946300;28;20451;-80
2022/12/19 03:29:01;;;;;;;6.05;3.35;;;7.70;99.90;;;;;;4984096;28;20060;-80
2022/12/19 03:31:30;;;;;;;6.57;3.58;;;7.70;99.90;;;;;;4977430;28;20249;-80
2022/12/19 03:34:10;;;;;;;6.03;3.10;;;7.80;99.90;;;;;;5001738;28;20026;-81
2022/12/19 03:36:40;;;;;;;5.95;3.28;;;7.80;99.90;;;;;;4992538;28;20038;-82
2022/12/19 03:39:08;;;;;;;7.73;3.57;;;7.80;99.90;;;;;;4977558;28;20062;-81
2022/12/19 03:44:25;;;;;;;6.20;3.40;;;7.80;99.90;;;;;;4991579;28;20037;-81
2022/12/19 03:46:58;;;;;;;5.78;3.13;;;7.90;99.90;;;;;;4966945;28;20060;-81
2022/12/19 03:49:24;;;;;;;5.60;2.83;;;7.90;99.90;;;;;;4989511;28;20313;-81
2022/12/19 03:52:00;;;;;;;6.80;3.60;;;7.90;99.90;;;;;;4977729;28;20029;-82
2022/12/19 03:54:34;;;;;;;6.97;4.07;;;7.90;99.90;;;;;;4960692;28;20025;-81
2022/12/19 03:57:08;;;;;;;8.15;4.03;;;8.00;99.90;;;;;;4989239;28;20109;-81
2022/12/19 03:59:58;;;;;;;7.22;4.05;;;8.00;99.90;;;;;;4995517;28;20032;-80
2022/12/19 04:02:25;;;;;;;7.15;3.90;;;8.00;99.90;;;;;;4992200;28;20080;-80
2022/12/19 04:04:56;;;;;;;6.03;3.47;;;8.00;99.90;;;;;;5010367;28;20050;-81
2022/12/19 04:07:23;;;;;;;5.70;3.17;;;8.10;99.90;;;;;;4972685;28;20170;-82
2022/12/19 04:09:50;;;;;;;5.78;3.30;;;8.10;99.90;;;;;;4993379;28;20041;-81
2022/12/19 04:12:23;;;;;;;7.15;3.83;;;8.10;99.90;;;;;;4946477;28;20052;-81
2022/12/19 04:14:50;;;;;;;6.72;3.58;;;8.10;99.90;;;;;;4983041;28;20395;-80
2022/12/19 04:17:27;;;;;;;7.03;3.90;;;8.10;99.90;;;;;;4993159;28;20374;-80
2022/12/19 04:19:55;;;;;;;5.78;3.40;;;8.10;99.90;;;;;;4989579;28;20592;-82
2022/12/19 04:22:33;;;;;;;5.53;3.03;;;8.20;99.90;;;;;;4988106;28;20244;-80
2022/12/19 04:25:00;;;;;;;5.97;3.30;;;8.20;99.90;;;;;;4975169;28;20021;-82
2022/12/19 04:27:27;;;;;;;6.63;3.67;;;8.20;99.90;;;;;;4992321;28;20264;-81
2022/12/19 04:29:56;;;;;;;6.23;3.60;;;8.30;99.90;;;;;;4983162;28;22254;-82
2022/12/19 04:32:24;;;;;;;6.43;3.15;;;8.20;99.90;;;;;;4999394;28;20022;-82
2022/12/19 04:34:49;;;;;;;5.65;3.25;;;8.30;99.90;;;;;;4982065;28;20049;-82
2022/12/19 04:37:15;;;;;;;6.30;3.30;;;8.30;99.90;;;;;;4975941;28;20270;-83
2022/12/19 04:39:41;;;;;;;6.53;3.60;;;8.30;99.90;;;;;;4978374;28;20017;-82
2022/12/19 04:42:07;;;;;;;5.65;3.42;;;8.30;99.90;;;;;;4960928;28;20072;-82
2022/12/19 04:44:33;;;;;;;5.80;3.10;;;8.40;99.90;;;;;;4976079;28;20352;-82
2022/12/19 04:46:58;;;;;;;4.60;2.63;;;8.40;99.90;;;;;;4981016;28;20029;-83
2022/12/19 04:49:24;;;;;;;5.37;2.90;;;8.40;99.90;;;;;;4978957;28;20789;-84
2022/12/19 04:51:50;;;;;;;5.47;2.83;;;8.40;99.90;;;;;;4978715;28;20033;-81
2022/12/19 04:54:15;;;;;;;4.63;2.70;;;8.40;99.90;;;;;;4973361;28;20612;-82
2022/12/19 04:56:41;;;;;;;5.25;2.70;;;8.40;99.90;;;;;;4982521;28;20024;-83
2022/12/19 04:59:07;;;;;;;4.72;2.67;;;8.50;99.90;;;;;;4972728;28;20238;-85
2022/12/19 05:01:33;;;;;;;5.23;2.80;;;8.50;99.90;;;;;;4981468;28;20042;-83
2022/12/19 05:03:59;;;;;;;4.72;2.58;;;8.50;99.90;;;;;;4984572;28;20053;-83
2022/12/19 05:06:24;;;;;;;6.00;2.93;;;8.50;99.90;;;;;;4989361;28;20038;-85
2022/12/19 05:08:50;;;;;;;5.35;2.70;;;8.50;99.90;;;;;;4994102;28;20040;-85
2022/12/19 05:11:16;;;;;;;6.90;2.80;;;8.50;99.90;;;;;;4960270;28;20222;-83
2022/12/19 05:13:43;;;;;;;5.20;2.65;;;8.60;99.90;;;;;;4966631;28;20038;-86
2022/12/19 05:16:10;;;;;;;5.35;2.70;;;8.60;99.90;;;;;;4969225;28;20029;-84
2022/12/19 05:18:37;;;;;;;4.72;2.58;;;8.60;99.90;;;;;;4982527;28;20134;-83
2022/12/19 05:21:04;;;;;;;5.97;2.80;;;8.70;99.90;;;;;;4978760;28;20036;-84
2022/12/19 05:23:30;;;;;;;4.67;2.67;;;8.70;99.90;;;;;;4975920;28;20037;-85
2022/12/19 05:26:00;;;;;;;10.80;3.60;;;8.70;99.90;;;;;;4962567;28;20094;-83
2022/12/19 05:28:26;;;;;;;4.78;2.63;;;8.80;99.90;;;;;;4971598;28;20259;-83
2022/12/19 05:31:21;;;;;;;5.43;3.13;;;8.80;99.90;;;;;;4983991;28;20029;-83
2022/12/19 05:33:48;;;;;;;4.67;2.47;;;8.80;99.90;;;;;;4975830;28;20234;-83
2022/12/19 05:36:15;;;;;;;4.03;2.50;;;8.90;99.90;;;;;;4966876;28;20382;-85
2022/12/19 05:38:41;;;;;;;4.32;2.38;;;8.80;99.90;;;;;;5000247;28;20245;-84
2022/12/19 05:41:12;;;;;;;4.63;2.60;;;8.90;99.90;;;;;;4963301;28;20029;-84
2022/12/19 05:43:38;;;;;;;5.18;2.35;;;8.90;99.90;;;;;;4963901;28;20523;-85
2022/12/19 05:46:04;;;;;;;4.77;2.70;;;8.90;99.90;;;;;;4987248;28;20022;-84
2022/12/19 05:48:30;;;;;;;4.25;2.30;;;8.90;99.90;;;;;;4978563;28;20017;-85
2022/12/19 05:50:56;;;;;;;3.47;2.25;;;8.90;99.90;;;;;;4966207;28;20032;-84
2022/12/19 05:53:21;;;;;;;3.83;2.20;;;9.00;99.90;;;;;;4990819;28;20053;-83
2022/12/19 05:55:47;;;;;;;3.95;2.20;;;9.00;99.90;;;;;;4982987;28;20993;-85
2022/12/19 05:58:13;;;;;;;3.30;2.03;;;9.00;99.90;;;;;;4973760;28;20045;-84
2022/12/19 06:00:39;;;;;;;4.40;2.33;;;9.00;99.90;;;;;;4963316;28;20474;-84
2022/12/19 06:03:04;;;;;;;4.00;2.10;;;9.00;99.90;;;;;;4968754;28;20033;-85
2022/12/19 06:05:30;;;;;;;4.00;2.38;;;9.10;99.90;;;;;;4967880;28;20605;-82
2022/12/19 06:07:56;;;;;;;3.67;2.05;;;9.10;99.90;;;;;;4989322;28;20479;-84
2022/12/19 06:10:22;;;;;;;3.57;1.93;;;9.10;99.90;;;;;;4981005;28;20033;-83
2022/12/19 06:12:48;;;;;;;3.45;2.10;;;9.10;99.90;;;;;;4952729;28;20324;-82
2022/12/19 06:15:15;;;;;;;4.95;2.50;;;9.10;99.90;;;;;;4964807;28;20543;-83
2022/12/19 06:17:41;;;;;;;4.70;2.40;;;9.10;99.90;;;;;;5001260;28;20104;-84
2022/12/19 06:20:07;;;;;;;5.28;2.72;;;9.10;99.90;;;;;;4948781;28;20030;-84
2022/12/19 06:22:33;;;;;;;3.70;2.30;;;9.20;99.90;;;;;;4981543;28;20742;-85
2022/12/19 06:24:59;;;;;;;4.20;2.70;;;9.20;99.90;;;;;;4973207;28;20029;-84
2022/12/19 06:27:25;;;;;;;4.50;2.90;;;9.20;99.90;;;;;;4953706;28;20026;-84
2022/12/19 06:29:51;;;;;;;5.10;2.77;;;9.20;99.90;;;;;;4972855;28;20041;-83
2022/12/19 06:32:17;;;;;;;4.90;2.40;;;9.20;99.90;;;;;;4957827;28;20040;-84
2022/12/19 06:34:42;;;;;;;4.60;2.73;;;9.20;99.90;;;;;;4961696;28;20295;-85
2022/12/19 06:37:08;;;;;;;4.88;2.80;;;9.20;99.90;;;;;;4974458;28;20013;-84
2022/12/19 06:39:33;;;;;;;4.20;2.33;;;9.30;99.90;;;;;;4936723;28;20037;-84
2022/12/19 06:44:43;;;;;;;5.03;2.87;;;9.30;99.90;;;;;;4995079;28;20017;-84
2022/12/19 06:47:09;;;;;;;4.10;2.70;;;9.20;99.90;;;;;;4957445;28;20029;-84
2022/12/19 06:49:35;;;;;;;4.57;2.40;;;9.30;99.90;;;;;;4981047;28;20467;-84
2022/12/19 06:52:00;;;;;;;4.20;2.55;;;9.30;99.90;;;;;;4989544;28;20032;-85
2022/12/19 06:54:27;;;;;;;5.10;2.80;;;9.30;99.90;;;;;;4974624;28;20717;-83
2022/12/19 06:56:52;;;;;;;5.22;3.17;;;9.30;99.90;;;;;;4990433;28;20018;-84
2022/12/19 06:59:18;;;;;;;5.10;2.60;;;9.30;99.90;;;;;;4947469;28;20048;-84
2022/12/19 07:01:59;;;;;;;4.68;2.45;;;9.40;99.90;;;;;;4943827;28;21264;-83
2022/12/19 07:04:39;;;;;;;3.65;2.30;;;9.40;99.90;;;;;;4967739;28;20041;-85
2022/12/19 07:07:04;;;;;;;5.07;2.95;;;9.40;99.90;;;;;;4963505;28;20040;-82
2022/12/19 07:09:32;;;;;;;6.67;2.63;;;9.40;99.90;;;;;;4983077;28;20030;-83
2022/12/19 07:11:58;;;;;;;5.28;2.90;;;9.40;99.90;;;;;;4984874;28;20469;-83
2022/12/19 07:14:23;;;;;;;5.43;2.80;;;9.50;99.90;;;;;;4979173;28;20083;-83
2022/12/19 07:16:51;;;;;;;4.30;2.33;;;9.50;99.90;;;;;;4962973;28;20025;-83
2022/12/19 07:19:17;;;;;;;3.78;2.40;;;9.50;99.90;;;;;;4980958;28;20046;-83
2022/12/19 07:21:43;;;;;;;4.18;2.42;;;9.50;99.90;;;;;;4955039;28;20036;-85
2022/12/19 07:24:11;;;;;;;4.00;2.35;;;9.60;99.90;;;;;;4979053;28;20132;-83
2022/12/19 07:26:37;;;;;;;3.67;2.13;;;9.60;99.90;;;;;;4955838;28;20160;-83
2022/12/19 07:29:03;;;;;;;3.83;2.60;;;9.60;99.90;;;;;;4940177;28;20164;-85
2022/12/19 07:31:28;;;;;;;4.07;2.35;;;9.60;99.90;;;;;;4979488;28;20017;-82
2022/12/19 07:33:54;;;;;;;5.30;2.70;;;9.60;99.90;;;;;;4963340;28;20320;-85
2022/12/19 07:36:20;;;;;;;4.20;2.10;;;9.60;99.90;;;;;;4974083;28;20498;-82
2022/12/19 07:38:45;;;;;;;4.43;2.70;;;9.70;99.90;;;;;;4964582;28;20030;-85
2022/12/19 07:41:12;;;;;;;3.53;2.20;;;9.70;99.90;;;;;;4973905;28;20260;-83
2022/12/19 07:43:37;;;;;;;5.32;3.00;;;9.70;99.90;;;;;;4969007;28;20101;-81
2022/12/19 07:46:03;;;;;;;4.90;2.50;;;9.70;99.90;;;;;;4997173;28;20022;-86
2022/12/19 07:48:30;;;;;;;4.93;2.50;;;9.70;99.90;;;;;;4995924;28;20026;-85
2022/12/19 07:50:55;;;;;;;3.83;2.38;;;9.80;99.90;;;;;;4986378;28;20157;-83
2022/12/19 07:53:21;;;;;;;4.63;2.53;;;9.80;99.90;;;;;;4994071;28;20044;-83
2022/12/19 07:55:50;;;;;;;5.07;2.70;;;9.80;99.90;;;;;;4971447;28;20033;-83
2022/12/19 07:58:16;;;;;;;3.90;2.50;;;9.80;99.90;;;;;;5007289;28;20478;-88
2022/12/19 08:00:41;;;;;;;4.47;2.53;;;9.90;99.90;;;;;;4953444;28;20030;-85
2022/12/19 08:03:07;;;;;;;4.37;2.60;;;9.90;99.90;;;;;;4980598;28;20034;-85
2022/12/19 08:05:33;;;;;;;4.93;2.58;;;9.90;99.90;;;;;;4922647;28;20064;-85
2022/12/19 08:07:59;;;;;;;4.70;2.70;;;9.90;99.90;;;;;;4971602;28;20026;-84
2022/12/19 08:10:25;;;;;;;4.97;2.53;;;9.90;99.90;;;;;;4981777;28;20064;-83
2022/12/19 08:12:51;;;;;;;5.20;2.42;;;10.00;99.90;;;;;;4977647;28;20045;-84
2022/12/19 08:15:17;;;;;;;3.33;2.33;;;10.00;99.90;;;;;;4984597;28;20378;-84
2022/12/19 08:17:42;;;;;;;4.88;2.90;;;10.00;99.90;;;;;;4970663;28;20624;-84
2022/12/19 08:20:10;;;;;;;3.45;2.17;;;10.00;99.90;;;;;;4944826;28;20390;-84
2022/12/19 08:22:36;;;;;;;3.50;2.30;;;10.10;99.90;;;;;;4994191;28;20034;-83
2022/12/19 08:25:02;;;;;;;3.83;2.50;;;10.10;99.90;;;;;;4960057;28;20519;-85
2022/12/19 08:27:28;;;;;;;4.55;2.80;;;10.10;99.90;;;;;;4982210;28;20033;-85
2022/12/19 08:29:54;;;;;;;4.75;2.88;;;10.20;99.90;;;;;;4970224;28;20026;-84
2022/12/19 08:32:20;;;;;;;3.93;2.30;;;10.20;99.90;;;;;;4958955;28;20760;-83
2022/12/19 08:34:46;;;;;;;4.65;2.65;;;10.30;99.90;;;;;;4977043;28;20390;-83
2022/12/19 08:37:12;;;;;;;5.63;3.22;;;10.30;99.90;;;;;;4960228;28;20367;-83
2022/12/19 08:39:37;;;;;;;4.33;2.70;;;10.30;99.90;;;;;;4977111;28;20030;-85
2022/12/19 08:42:03;;;;;;;3.70;2.38;;;10.30;99.90;;;;;;4962291;28;20044;-83
2022/12/19 08:44:29;;;;;;;4.43;2.07;;;10.40;99.90;;;;;;4982821;28;20041;-84
2022/12/19 08:46:55;;;;;;;4.13;2.30;;;10.40;99.90;;;;;;4972371;28;20217;-86
2022/12/19 08:49:21;;;;;;;2.93;2.20;;;10.40;99.90;;;;;;4987774;28;20241;-84
2022/12/19 08:51:46;;;;;;;4.57;2.50;;;10.50;99.90;;;;;;4954305;28;20025;-86
2022/12/19 08:54:12;;;;;;;4.05;2.30;;;10.50;99.90;;;;;;4965928;28;20240;-84
2022/12/19 08:56:38;;;;;;;3.35;2.38;;;10.50;99.90;;;;;;4991850;28;20020;-83
2022/12/19 08:59:05;;;;;;;4.57;2.47;;;10.60;99.90;;;;;;4972782;28;20026;-87
2022/12/19 09:01:31;;;;;;;4.13;2.65;;;10.60;99.90;;;;;;4983887;28;20022;-86
2022/12/19 09:03:58;;;;;;;3.80;2.30;;;10.60;99.90;;;;;;5000013;28;20083;-84
2022/12/19 09:06:24;;;;;;;3.20;1.90;;;10.70;99.90;;;;;;4961358;28;20171;-84
2022/12/19 09:08:50;;;;;;;4.10;2.17;;;10.70;99.90;;;;;;4971093;28;20128;-83
2022/12/19 09:11:18;;;;;;;3.60;2.20;;;10.70;99.90;;;;;;4975475;28;20236;-84
2022/12/19 09:13:46;;;;;;;3.75;2.33;;;10.70;99.90;;;;;;4996203;28;20082;-84
2022/12/19 09:16:14;;;;;;;3.60;2.40;;;10.70;99.90;;;;;;5009441;28;20263;-83
2022/12/19 09:18:42;;;;;;;3.40;2.10;;;10.80;99.90;;;;;;4964303;28;20097;-86
2022/12/19 09:21:08;;;;;;;4.00;2.33;;;10.80;99.90;;;;;;4961446;28;21446;-86
2022/12/19 09:23:35;;;;;;;3.97;2.20;;;10.80;99.90;;;;;;4988717;28;20108;-86
2022/12/19 09:26:11;;;;;;;3.55;2.10;;;10.80;99.90;;;;;;4976956;28;20028;-83
2022/12/19 09:28:39;;;;;;;4.10;2.17;;;10.80;99.90;;;;;;4969400;28;20036;-83
2022/12/19 09:31:09;;;;;;;2.50;1.70;;;10.90;99.90;;;;;;4986951;28;20119;-84
2022/12/19 09:33:36;;;;;;;4.00;2.38;;;10.80;99.90;;;;;;4964448;28;20148;-84
2022/12/19 09:36:02;;;;;;;3.25;2.10;;;10.90;99.90;;;;;;4985444;28;20022;-84
2022/12/19 09:38:29;;;;;;;4.90;2.53;;;10.90;99.90;;;;;;4942496;28;20044;-82
2022/12/19 09:40:58;;;;;;;3.25;2.20;;;10.90;99.90;;;;;;4970489;28;20652;-82
2022/12/19 09:43:53;;;;;;;3.30;2.20;;;11.00;99.90;;;;;;4990740;28;20817;-83
2022/12/19 09:46:24;;;;;;;3.08;2.03;;;11.00;99.90;;;;;;4965645;28;20211;-85
2022/12/19 09:48:54;;;;;;;3.90;2.30;;;11.00;99.90;;;;;;4975506;28;20041;-83
2022/12/19 09:51:33;;;;;;;4.05;2.42;;;11.10;99.90;;;;;;4993986;28;20315;-83
2022/12/19 09:54:04;;;;;;;3.33;2.38;;;11.00;99.90;;;;;;4952041;28;20109;-85
2022/12/19 09:56:35;;;;;;;4.50;2.50;;;11.10;99.90;;;;;;4992258;28;20026;-82
2022/12/19 09:59:12;;;;;;;3.67;2.20;;;11.00;99.90;;;;;;4977186;28;20032;-85
2022/12/19 10:01:52;;;;;;;3.38;2.20;;;11.10;99.90;;;;;;4980235;28;20030;-86
2022/12/19 10:04:18;;;;;;;3.60;2.50;;;11.00;99.90;;;;;;4985257;28;20250;-86
2022/12/19 10:06:44;;;;;;;3.42;1.80;;;11.00;99.90;;;;;;4963072;28;20502;-85
2022/12/19 10:09:13;;;;;;;2.93;2.10;;;11.00;99.90;;;;;;4949463;28;20265;-86
2022/12/19 10:12:27;;;;;;;4.22;2.70;;;11.00;99.90;;;;;;4976796;28;20513;-85
2022/12/19 10:15:19;;;;;;;3.88;2.40;;;10.90;99.90;;;;;;4911257;28;20063;-82
2022/12/19 10:18:04;;;;;;;3.40;2.20;;;10.90;99.90;;;;;;5011414;28;20398;-84
2022/12/19 10:20:37;;;;;;;3.90;2.53;;;10.90;99.90;;;;;;4978777;28;21013;-85
2022/12/19 10:23:21;;;;;;;3.37;2.33;;;10.80;99.90;;;;;;4944398;28;20282;-86
2022/12/19 10:26:09;;;;;;;3.45;1.98;;;10.80;99.90;;;;;;4978540;28;21756;-85
2022/12/19 10:28:38;;;;;;;3.17;2.03;;;10.80;99.90;;;;;;4970084;28;20030;-84
2022/12/19 10:31:22;;;;;;;2.50;1.73;;;10.80;99.90;;;;;;4982240;28;20135;-86
2022/12/19 10:34:19;;;;;;;3.42;2.00;;;10.70;99.90;;;;;;4993350;28;20832;-86
2022/12/19 10:36:49;;;;;;;3.67;2.00;;;10.80;99.90;;;;;;4978483;28;20065;-84
2022/12/19 10:39:45;;;;;;;3.40;1.90;;;10.70;99.90;;;;;;4945137;28;20029;-84
2022/12/19 10:42:38;;;;;;;3.92;2.33;;;10.70;99.90;;;;;;4960871;28;20220;-84
2022/12/19 10:45:13;;;;;;;3.40;1.88;;;10.80;99.90;;;;;;4976797;28;20186;-86
2022/12/19 10:47:41;;;;;;;3.63;2.33;;;10.80;99.90;;;;;;4978409;28;20422;-87
2022/12/19 10:50:17;;;;;;;4.07;2.40;;;10.80;99.90;;;;;;4974721;28;20321;-86
2022/12/19 10:52:51;;;;;;;3.30;2.10;;;10.80;99.90;;;;;;4995780;28;20033;-83
2022/12/19 10:55:42;;;;;;;5.03;2.65;;;10.80;99.90;;;;;;4959871;28;20030;-84
2022/12/19 10:58:26;;;;;;;2.97;1.95;;;10.90;99.90;;;;;;4965530;28;20235;-86
2022/12/19 11:01:04;;;;;;;3.17;1.73;;;11.00;99.90;;;;;;4971179;28;20179;-84
2022/12/19 11:03:34;;;;;;;2.47;1.70;;;11.10;99.90;;;;;;4975741;28;20486;-85
2022/12/19 11:06:02;;;;;;;2.97;1.80;;;11.10;99.90;;;;;;4970660;28;20812;-86
2022/12/19 11:08:33;;;;;;;5.00;2.20;;;11.30;99.90;;;;;;4994727;28;20694;-84
2022/12/19 11:11:04;;;;;;;4.15;2.15;;;11.30;99.90;;;;;;4965076;28;20240;-84
2022/12/19 11:13:33;;;;;;;2.90;1.90;;;11.40;99.90;;;;;;4976705;28;20490;-85
2022/12/19 11:16:03;;;;;;;3.27;1.87;;;11.50;99.90;;;;;;4941979;28;20425;-85
2022/12/19 11:18:41;;;;;;;3.20;2.00;;;11.60;99.90;;;;;;4948693;28;20052;-86
2022/12/19 11:21:18;;;;;;;3.63;2.15;;;11.70;99.90;;;;;;4983929;28;20290;-82
2022/12/19 11:23:53;;;;;;;4.15;2.28;;;11.80;99.90;;;;;;4977109;28;20738;-87
2022/12/19 11:26:31;;;;;;;2.72;1.70;;;11.90;99.90;;;;;;4959362;28;20076;-85
2022/12/19 11:29:02;;;;;;;2.47;1.60;;;12.00;99.90;;;;;;4983601;28;20026;-86
2022/12/19 11:31:29;;;;;;;2.83;1.70;;;12.00;99.90;;;;;;5001951;28;20124;-84
2022/12/19 11:34:02;;;;;;;3.28;1.83;;;12.10;99.90;;;;;;4968559;28;20041;-84
2022/12/19 11:36:28;;;;;;;3.33;1.83;;;12.10;99.90;;;;;;4986587;28;20314;-85
2022/12/19 11:38:54;;;;;;;2.90;1.77;;;12.20;99.90;;;;;;4963721;28;20113;-86
2022/12/19 11:41:31;;;;;;;2.17;1.52;;;12.20;99.90;;;;;;4924544;28;21283;-84
2022/12/19 11:44:07;;;;;;;2.47;1.52;;;12.20;99.90;;;;;;4985410;28;20521;-84
2022/12/19 11:46:43;;;;;;;3.00;1.75;;;12.30;99.90;;;;;;4995879;28;20442;-84
2022/12/19 11:49:32;;;;;;;3.07;1.80;;;12.30;99.90;;;;;;4958446;28;20032;-84
2022/12/19 11:52:09;;;;;;;3.20;1.67;;;12.30;99.90;;;;;;4989969;28;21258;-82
2022/12/19 11:54:53;;;;;;;3.13;1.85;;;12.40;99.90;;;;;;4991232;28;20098;-85
2022/12/19 11:57:18;;;;;;;2.70;1.70;;;12.50;99.90;;;;;;4954967;28;20034;-83
2022/12/19 11:59:45;;;;;;;2.53;1.80;;;12.50;99.90;;;;;;4972971;28;20033;-83
2022/12/19 12:02:27;;;;;;;2.17;1.52;;;12.60;99.90;;;;;;4972083;28;20385;-85
2022/12/19 12:05:36;;;;;;;2.72;2.00;;;12.60;99.90;;;;;;4980437;28;21275;-84
2022/12/19 12:08:24;;;;;;;2.10;1.50;;;12.60;99.90;;;;;;4965381;28;20041;-83
2022/12/19 12:11:00;;;;;;;2.10;1.50;;;12.70;99.90;;;;;;4985631;28;20125;-85
2022/12/19 12:13:53;;;;;;;1.93;1.50;;;12.70;99.90;;;;;;4971075;28;20092;-85
2022/12/19 12:16:31;;;;;;;2.67;1.70;;;12.80;99.90;;;;;;4988972;28;20041;-86
2022/12/19 12:19:11;;;;;;;2.20;1.60;;;12.90;99.90;;;;;;4984103;28;20033;-86
2022/12/19 12:22:15;;;;;;;2.50;1.70;;;12.90;99.90;;;;;;4982633;28;20048;-83
2022/12/19 12:24:55;;;;;;;2.00;1.50;;;12.90;99.90;;;;;;4978479;28;20614;-83
2022/12/19 12:27:48;;;;;;;3.03;1.50;;;12.90;99.90;;;;;;4970795;28;20029;-85
2022/12/19 12:30:18;;;;;;;2.25;1.60;;;13.00;99.90;;;;;;4936808;28;20274;-85
2022/12/19 12:32:51;;;;;;;2.30;1.50;;;13.00;99.90;;;;;;5008963;28;20026;-83
2022/12/19 12:35:36;;;;;;;2.30;1.67;;;13.00;99.90;;;;;;4946689;28;20160;-85
2022/12/19 12:38:21;;;;;;;2.30;1.70;;;13.00;99.90;;;;;;4972019;28;20018;-84
2022/12/19 12:41:06;;;;;;;2.63;1.60;;;13.00;99.90;;;;;;4967063;28;20631;-85
2022/12/19 12:43:42;;;;;;;2.08;1.42;;;13.00;99.90;;;;;;4931998;28;20025;-83
2022/12/19 12:46:18;;;;;;;2.40;1.50;;;13.10;99.90;;;;;;4984616;28;20030;-84
2022/12/19 12:49:05;;;;;;;1.98;1.50;;;13.10;99.90;;;;;;4984231;28;20029;-83
2022/12/19 12:51:33;;;;;;;3.53;1.42;;;13.10;99.90;;;;;;4985509;28;20018;-83
2022/12/19 12:54:10;;;;;;;2.37;1.57;;;13.20;99.90;;;;;;4983839;28;20030;-84
2022/12/19 12:56:37;;;;;;;2.38;1.50;;;13.20;99.90;;;;;;4966507;28;20030;-84
2022/12/19 12:59:04;;;;;;;3.03;1.80;;;13.20;99.90;;;;;;4951528;28;20036;-84
2022/12/19 13:01:37;;;;;;;3.50;1.80;;;13.20;99.90;;;;;;4991056;28;20022;-84
2022/12/19 13:04:20;;;;;;;2.47;1.67;;;13.20;99.90;;;;;;4991453;28;20441;-84
2022/12/19 13:06:49;;;;;;;3.03;1.70;;;13.20;99.90;;;;;;4958909;28;20064;-83
2022/12/19 13:09:32;;;;;;;3.92;1.80;;;13.20;99.90;;;;;;4980643;28;20760;-82
2022/12/19 13:15:25;;;;;;;3.03;1.85;;;13.10;99.90;;;;;;4956366;28;20037;-83
2022/12/19 13:17:51;;;;;;;3.22;2.03;;;13.00;99.90;;;;;;4957939;28;20030;-83
2022/12/19 13:20:16;;;;;;;2.40;1.70;;;13.00;99.90;;;;;;4980069;28;20479;-84
2022/12/19 13:22:44;;;;;;;2.80;1.73;;;12.90;99.90;;;;;;4980181;28;20240;-82